M I D A S
Marine Information and Data Acquisition System
Tripno 1254 of the Zeeleeuw from 2007-01-08 07:48:13 to 2007-01-08 10:38:09
Back to CruiseResearch ActivitiesStationsMapUnderway DataData graphs

EquipmentUnitsComment
TimeDGPSUTC
LatitudeDGPSDM.mWGS84
LongitudeDGPSDM.mWGS84
HeadingGyrodeg 
SOGDGPSknotsSpeed over ground
COGDGPSdegCourse over ground
DepthEcho soundermeters200 kHz
Missing or incorrect values are displayed as -999
Navigation data collected by the RV Zeeleeuw from 2007-01-08 07:44:18 to 2007-01-08 10:48:54
                                                                                    Next 1000 lines
Time Latitude Longitude Heading SOG COG Depth
2007-01-08 07:44:28 51°13.599 2°56.095 127.4 0.1 287 5.3
2007-01-08 07:44:33 51°13.599 2°56.094 128 0.1 299 7.1
2007-01-08 07:44:38 51°13.6 2°56.095 128.1 0.1 315 7.1
2007-01-08 07:44:44 51°13.6 2°56.095 128 0.1 328 7
2007-01-08 07:44:48 51°13.601 2°56.095 127.5 0.1 337 6.9
2007-01-08 07:44:53 51°13.601 2°56.095 127.1 -999 302 -999
2007-01-08 07:44:58 51°13.6 2°56.094 126.8 -999 300 6.9
2007-01-08 07:45:04 51°13.6 2°56.094 126.7 0.1 308 6.9
2007-01-08 07:45:08 51°13.6 2°56.094 126.6 0.1 312 6.8
2007-01-08 07:45:13 51°13.6 2°56.094 126.2 -999 108 6.9
2007-01-08 07:45:18 51°13.6 2°56.094 125.8 0.1 123 6.8
2007-01-08 07:45:24 51°13.6 2°56.094 125.6 0.2 134 6.8
2007-01-08 07:45:28 51°13.6 2°56.095 126 0.2 122 6.9
2007-01-08 07:45:33 51°13.6 2°56.095 126.7 0.2 148 7
2007-01-08 07:45:38 51°13.6 2°56.095 127.3 -999 197 7
2007-01-08 07:45:43 51°13.6 2°56.095 127.9 0.1 318 7
2007-01-08 07:45:48 51°13.599 2°56.094 128.1 0.1 297 7
2007-01-08 07:45:54 51°13.599 2°56.094 128.2 0.1 324 7
2007-01-08 07:45:58 51°13.599 2°56.094 128 0.1 311 7
2007-01-08 07:46:03 51°13.599 2°56.094 127.6 -999 357 6.8
2007-01-08 07:46:08 51°13.599 2°56.094 127.3 -999 180 6.8
2007-01-08 07:46:13 51°13.599 2°56.094 127 -999 341 6.8
2007-01-08 07:46:18 51°13.599 2°56.094 127 -999 211 6.7
2007-01-08 07:46:24 51°13.599 2°56.094 127 -999 110 6.7
2007-01-08 07:46:28 51°13.599 2°56.094 127 0.1 112 6.7
2007-01-08 07:46:33 51°13.599 2°56.094 127 0.1 118 6.7
2007-01-08 07:46:38 51°13.599 2°56.095 127 -999 265 6.8
2007-01-08 07:46:44 51°13.599 2°56.095 127 0.1 288 7
2007-01-08 07:46:48 51°13.599 2°56.095 126.7 -999 288 7
2007-01-08 07:46:53 51°13.6 2°56.095 126.6 -999 62 7.1
2007-01-08 07:46:59 51°13.6 2°56.095 126.4 -999 220 7
2007-01-08 07:47:04 51°13.6 2°56.095 126.4 -999 93 7
2007-01-08 07:47:08 51°13.6 2°56.095 126.4 -999 124 6.9
2007-01-08 07:47:13 51°13.6 2°56.096 126.4 -999 105 6.8
2007-01-08 07:47:18 51°13.6 2°56.096 126.3 -999 79 6.9
2007-01-08 07:47:24 51°13.599 2°56.095 126.2 -999 294 6.8
2007-01-08 07:47:28 51°13.599 2°56.095 125.8 0.1 331 6.9
2007-01-08 07:47:33 51°13.599 2°56.095 125.4 -999 319 6.8
2007-01-08 07:47:38 51°13.599 2°56.094 125 -999 274 6.7
2007-01-08 07:47:43 51°13.599 2°56.095 124.8 -999 92 6.7
2007-01-08 07:47:49 51°13.599 2°56.095 124.5 -999 194 6.7
2007-01-08 07:47:53 51°13.599 2°56.095 124.4 -999 348 6.9
2007-01-08 07:47:58 51°13.599 2°56.095 124.4 -999 276 6.8
2007-01-08 07:48:03 51°13.599 2°56.095 124.4 0.1 318 6.8
2007-01-08 07:48:08 51°13.599 2°56.094 124.6 0.1 289 6.8
2007-01-08 07:48:13 51°13.599 2°56.094 124.8 -999 302 6.9
2007-01-08 07:48:18 51°13.599 2°56.094 124.9 -999 306 6.9
2007-01-08 07:48:24 51°13.6 2°56.095 125.1 -999 141 6.8
2007-01-08 07:48:28 51°13.6 2°56.095 125.2 0.2 125 7.3
2007-01-08 07:48:33 51°13.599 2°56.095 125.1 0.2 136 6.8
2007-01-08 07:48:38 51°13.598 2°56.095 124.4 0.1 198 6.8
2007-01-08 07:48:44 51°13.598 2°56.094 123.3 0.1 275 6.8
2007-01-08 07:48:48 51°13.598 2°56.094 122.1 0.1 220 6.9
2007-01-08 07:48:53 51°13.598 2°56.094 121.1 0.1 168 -999
2007-01-08 07:48:58 51°13.598 2°56.094 119.2 0.1 211 7
2007-01-08 07:49:04 51°13.598 2°56.094 117.5 0.1 244 7
2007-01-08 07:49:08 51°13.597 2°56.094 116 0.2 263 7
2007-01-08 07:49:13 51°13.597 2°56.093 115 0.3 286 7
2007-01-08 07:49:19 51°13.598 2°56.092 113.9 0.4 285 7
2007-01-08 07:49:24 51°13.598 2°56.091 113.4 0.6 286 7
2007-01-08 07:49:28 51°13.598 2°56.09 113.2 0.8 288 7.1
2007-01-08 07:49:33 51°13.599 2°56.088 113.2 0.9 288 7.7
2007-01-08 07:49:38 51°13.6 2°56.086 113.2 1.2 290 7.3
2007-01-08 07:49:44 51°13.6 2°56.082 113.6 1.5 293 7.4
2007-01-08 07:49:48 51°13.601 2°56.079 114.3 1.7 292 7.8
2007-01-08 07:49:54 51°13.602 2°56.075 114.6 1.9 291 -999
2007-01-08 07:49:59 51°13.603 2°56.07 115.3 2.1 293 -999
2007-01-08 07:50:04 51°13.605 2°56.066 115.8 2.3 291 -999
2007-01-08 07:50:09 51°13.606 2°56.06 116.3 2.5 291 -999
2007-01-08 07:50:14 51°13.607 2°56.055 116.8 2.6 293 -999
2007-01-08 07:50:19 51°13.608 2°56.049 117.7 2.8 294 -999
2007-01-08 07:50:24 51°13.61 2°56.043 118.9 3 293 -999
2007-01-08 07:50:29 51°13.612 2°56.037 119.6 3 294 -999
2007-01-08 07:50:34 51°13.614 2°56.031 120.1 3.1 296 5.4
2007-01-08 07:50:39 51°13.616 2°56.025 120.4 3.2 295 -999
2007-01-08 07:50:44 51°13.618 2°56.018 121 3.3 296 -999
2007-01-08 07:50:49 51°13.62 2°56.012 122 3.4 297 -999
2007-01-08 07:50:54 51°13.623 2°56.005 123.1 3.6 298 -999
2007-01-08 07:50:59 51°13.625 2°55.998 123.8 3.7 300 -999
2007-01-08 07:51:04 51°13.628 2°55.99 124.5 3.8 299 -999
2007-01-08 07:51:08 51°13.63 2°55.984 125.1 3.9 301 -999
2007-01-08 07:51:14 51°13.633 2°55.975 126 4 301 -999
2007-01-08 07:51:19 51°13.636 2°55.968 126.8 4 304 -999
2007-01-08 07:51:24 51°13.639 2°55.96 127.5 4 303 -999
2007-01-08 07:51:29 51°13.642 2°55.953 127.8 4.1 304 -999
2007-01-08 07:51:34 51°13.645 2°55.945 128.2 4.1 304 -999
2007-01-08 07:51:39 51°13.649 2°55.938 128.4 4.1 305 -999
2007-01-08 07:51:44 51°13.652 2°55.931 128.4 4.1 306 -999
2007-01-08 07:51:49 51°13.656 2°55.923 128.9 4 306 -999
2007-01-08 07:51:54 51°13.659 2°55.916 129.1 4 306 4.7
2007-01-08 07:51:59 51°13.662 2°55.909 129.2 4 307 -999
2007-01-08 07:52:04 51°13.665 2°55.902 129.2 4 306 -999
2007-01-08 07:52:09 51°13.668 2°55.895 129.2 3.9 307 -999
2007-01-08 07:52:14 51°13.672 2°55.888 129.1 3.8 306 -999
2007-01-08 07:52:19 51°13.675 2°55.881 129 3.7 308 -999
2007-01-08 07:52:24 51°13.678 2°55.875 128.5 3.8 306 -999
2007-01-08 07:52:29 51°13.681 2°55.868 127.8 3.9 306 -999
2007-01-08 07:52:34 51°13.684 2°55.861 127.2 3.9 305 -999
2007-01-08 07:52:39 51°13.687 2°55.854 126 3.9 305 -999
2007-01-08 07:52:44 51°13.69 2°55.846 124.9 4 304 -999
2007-01-08 07:52:48 51°13.693 2°55.84 123.6 4 302 -999
2007-01-08 07:52:54 51°13.696 2°55.832 122.6 4 303 -999
2007-01-08 07:52:59 51°13.699 2°55.824 121.9 4.1 300 -999
2007-01-08 07:53:04 51°13.702 2°55.816 121.2 4.2 301 -999
2007-01-08 07:53:09 51°13.705 2°55.807 120.4 4.3 299 -999
2007-01-08 07:53:14 51°13.708 2°55.799 119.7 4.3 299 -999
2007-01-08 07:53:19 51°13.71 2°55.791 118.7 4.3 297 -999
2007-01-08 07:53:24 51°13.713 2°55.782 117.9 4.2 298 -999
2007-01-08 07:53:29 51°13.716 2°55.774 117.3 4 295 -999
2007-01-08 07:53:34 51°13.718 2°55.766 116.4 4 296 -999
2007-01-08 07:53:39 51°13.72 2°55.758 114.9 4 294 -999
2007-01-08 07:53:44 51°13.722 2°55.751 113.9 3.8 293 4.5
2007-01-08 07:53:48 51°13.724 2°55.745 113.1 3.6 293 5
2007-01-08 07:53:54 51°13.726 2°55.736 111.8 3.4 291 -999
2007-01-08 07:53:59 51°13.727 2°55.73 110.3 3.1 291 -999
2007-01-08 07:54:04 51°13.728 2°55.724 108.4 2.7 290 11
2007-01-08 07:54:08 51°13.729 2°55.72 107.4 2.3 290 10.7
2007-01-08 07:54:13 51°13.73 2°55.716 105.9 1.9 289 10.7
2007-01-08 07:54:18 51°13.731 2°55.713 104.4 1.5 289 10.7
2007-01-08 07:54:24 51°13.731 2°55.71 102.2 1 294 10.8
2007-01-08 07:54:29 51°13.732 2°55.709 99.3 0.6 305 10.5
2007-01-08 07:54:33 51°13.732 2°55.709 96.3 0.3 337 10.5
2007-01-08 07:54:38 51°13.733 2°55.709 93.3 0.4 38 10.6
2007-01-08 07:54:43 51°13.733 2°55.71 90.2 0.7 52 10.7
2007-01-08 07:54:48 51°13.734 2°55.712 86.6 1 64 10.7
2007-01-08 07:54:53 51°13.735 2°55.715 82.3 1.3 62 9.9
2007-01-08 07:54:58 51°13.736 2°55.717 77 1.4 57 10.6
2007-01-08 07:55:03 51°13.737 2°55.72 71.4 1.3 55 10.5
2007-01-08 07:55:08 51°13.738 2°55.722 66.7 1.2 54 10.5
2007-01-08 07:55:13 51°13.738 2°55.724 63.3 1.1 50 4.6
2007-01-08 07:55:18 51°13.739 2°55.725 60.4 0.9 46 9.5
2007-01-08 07:55:23 51°13.74 2°55.726 57.3 0.7 41 9.8
2007-01-08 07:55:28 51°13.74 2°55.727 54.2 0.4 36 9.7
2007-01-08 07:55:34 51°13.741 2°55.727 51 0.1 28 9.9
2007-01-08 07:55:38 51°13.741 2°55.727 48.1 0.2 220 9.8
2007-01-08 07:55:43 51°13.74 2°55.726 45.7 0.5 222 9.8
2007-01-08 07:55:48 51°13.739 2°55.725 43.6 0.8 221 9.7
2007-01-08 07:55:53 51°13.738 2°55.724 42 1 218 9.8
2007-01-08 07:55:58 51°13.737 2°55.722 40.7 1.2 218 9.6
2007-01-08 07:56:04 51°13.735 2°55.72 39.6 1.4 215 10.4
2007-01-08 07:56:09 51°13.734 2°55.718 38.4 1.4 216 -999
2007-01-08 07:56:14 51°13.732 2°55.717 37.6 1.3 214 -999
2007-01-08 07:56:19 51°13.731 2°55.715 37.2 1.2 215 -999
2007-01-08 07:56:24 51°13.73 2°55.714 36.7 1 216 -999
2007-01-08 07:56:29 51°13.729 2°55.713 36 0.8 214 -999
2007-01-08 07:56:34 51°13.728 2°55.712 34.2 0.5 222 -999
2007-01-08 07:56:38 51°13.728 2°55.712 32.2 0.1 234 4.7
2007-01-08 07:56:44 51°13.728 2°55.712 30.7 0.2 26 4.6
2007-01-08 07:56:49 51°13.729 2°55.712 29.6 0.5 15 4.7
2007-01-08 07:56:53 51°13.73 2°55.713 26.3 0.9 18 4.7
2007-01-08 07:56:58 51°13.732 2°55.713 22.4 1.2 9 4.7
2007-01-08 07:57:04 51°13.734 2°55.714 17 1.5 7 4.6
2007-01-08 07:57:09 51°13.737 2°55.713 11.8 1.9 357 4.9
2007-01-08 07:57:13 51°13.739 2°55.713 5.9 2.3 353 5.1
2007-01-08 07:57:18 51°13.743 2°55.712 359.5 2.5 346 5.2
2007-01-08 07:57:23 51°13.746 2°55.71 354.2 2.6 341 4.7
2007-01-08 07:57:28 51°13.749 2°55.707 348.2 2.9 337 10.1
2007-01-08 07:57:33 51°13.754 2°55.704 343 3.3 333 10
2007-01-08 07:57:38 51°13.758 2°55.7 338.7 3.8 331 10
2007-01-08 07:57:44 51°13.764 2°55.695 335.7 4.2 329 10
2007-01-08 07:57:48 51°13.768 2°55.691 334 4.2 330 10
2007-01-08 07:57:53 51°13.773 2°55.686 333.5 4.2 329 9.7
2007-01-08 07:57:58 51°13.778 2°55.681 333.4 4.4 329 9.3
2007-01-08 07:58:03 51°13.783 2°55.676 333.4 4.6 328 9.3
2007-01-08 07:58:08 51°13.789 2°55.671 333.8 4.9 330 9.5
2007-01-08 07:58:13 51°13.795 2°55.665 334.2 5.1 329 9.8
2007-01-08 07:58:18 51°13.801 2°55.659 334.4 5.4 331 10.2
2007-01-08 07:58:24 51°13.809 2°55.652 334.5 5.6 331 10.4
2007-01-08 07:58:28 51°13.815 2°55.647 335 5.8 331 10.4
2007-01-08 07:58:33 51°13.822 2°55.641 335.8 5.9 333 10.4
2007-01-08 07:58:38 51°13.83 2°55.635 336.8 6.1 333 10.4
2007-01-08 07:58:44 51°13.839 2°55.628 338.2 6.3 335 10.3
2007-01-08 07:58:48 51°13.846 2°55.623 339.5 6.4 335 10
2007-01-08 07:58:53 51°13.854 2°55.617 339.8 6.5 335 10.3
2007-01-08 07:58:58 51°13.862 2°55.611 339.7 6.6 335 10.5
2007-01-08 07:59:03 51°13.87 2°55.605 339.6 6.7 336 10.3
2007-01-08 07:59:09 51°13.881 2°55.598 339.8 6.8 336 10.5
2007-01-08 07:59:13 51°13.888 2°55.592 339.7 6.9 336 10.5
2007-01-08 07:59:18 51°13.896 2°55.586 339.5 6.9 336 10.5
2007-01-08 07:59:23 51°13.905 2°55.58 339.5 6.9 336 10.5
2007-01-08 07:59:29 51°13.915 2°55.572 339.8 7 337 10.5
2007-01-08 07:59:34 51°13.924 2°55.566 340.1 7 336 -999
2007-01-08 07:59:38 51°13.931 2°55.561 340.1 7 336 10.5
2007-01-08 07:59:43 51°13.94 2°55.555 339.8 7 336 10.4
2007-01-08 07:59:48 51°13.949 2°55.549 340 7.1 337 10.4
2007-01-08 07:59:53 51°13.958 2°55.543 340.4 7 336 10.4
2007-01-08 07:59:58 51°13.967 2°55.537 340.5 7.1 336 10.4
2007-01-08 08:00:03 51°13.976 2°55.531 340.4 7.1 336 10.4
2007-01-08 08:00:08 51°13.985 2°55.524 339.9 7.1 336 10.4
2007-01-08 08:00:13 51°13.994 2°55.518 339.5 7.1 336 10.4
2007-01-08 08:00:18 51°14.003 2°55.512 340 7.1 338 10.4
2007-01-08 08:00:24 51°14.015 2°55.504 341 7.2 337 10.3
2007-01-08 08:00:28 51°14.022 2°55.499 341.1 7.2 337 10.3
2007-01-08 08:00:33 51°14.031 2°55.493 341 7.2 336 10.3
2007-01-08 08:00:39 51°14.042 2°55.485 340.7 7.1 336 10.3
2007-01-08 08:00:44 51°14.051 2°55.479 340.6 7.1 336 10.3
2007-01-08 08:00:48 51°14.058 2°55.474 340.6 7.1 336 10.4
2007-01-08 08:00:53 51°14.067 2°55.468 340.6 7.1 335 10.4
2007-01-08 08:00:58 51°14.076 2°55.461 340.1 7.1 335 10.4
2007-01-08 08:01:04 51°14.086 2°55.453 339.5 7.1 336 10.4
2007-01-08 08:01:08 51°14.094 2°55.448 339.5 7.1 336 10.4
2007-01-08 08:01:13 51°14.103 2°55.442 339.8 7.1 336 10.4
2007-01-08 08:01:18 51°14.112 2°55.435 339.9 7 335 10.4
2007-01-08 08:01:24 51°14.122 2°55.427 338.9 7.1 334 10.4
2007-01-08 08:01:28 51°14.129 2°55.421 337.7 7.1 333 10.4
2007-01-08 08:01:33 51°14.138 2°55.414 336.8 7.1 332 10.4
2007-01-08 08:01:38 51°14.146 2°55.407 336.1 7.1 332 10.4
2007-01-08 08:01:43 51°14.155 2°55.399 335.6 7.1 330 10.4
2007-01-08 08:01:49 51°14.165 2°55.389 334.7 7.1 330 10.4
2007-01-08 08:01:53 51°14.172 2°55.383 333.8 7.2 328 10.4
2007-01-08 08:01:58 51°14.18 2°55.374 332.4 7.2 327 10.4
2007-01-08 08:02:03 51°14.188 2°55.365 331 7.3 325 10.4
2007-01-08 08:02:08 51°14.197 2°55.355 329.5 7.5 325 10.4
2007-01-08 08:02:14 51°14.207 2°55.343 328.5 7.6 323 -999
2007-01-08 08:02:19 51°14.216 2°55.333 327.6 7.8 323 10.4
2007-01-08 08:02:24 51°14.224 2°55.322 326.3 7.9 320 10.4
2007-01-08 08:02:28 51°14.231 2°55.312 324.1 8.1 318 10.4
2007-01-08 08:02:34 51°14.241 2°55.297 321.5 8.3 316 -999
2007-01-08 08:02:39 51°14.249 2°55.284 319.8 8.5 315 -999
2007-01-08 08:02:44 51°14.257 2°55.27 318.5 8.7 313 10.4
2007-01-08 08:02:48 51°14.264 2°55.258 317.5 8.9 312 10.5
2007-01-08 08:02:54 51°14.274 2°55.24 316.4 9 311 10.4
2007-01-08 08:02:59 51°14.282 2°55.225 315.4 9.1 311 -999
2007-01-08 08:03:04 51°14.29 2°55.21 315 9.2 311 -999
2007-01-08 08:03:08 51°14.297 2°55.197 315.1 9.2 311 10.5
2007-01-08 08:03:13 51°14.305 2°55.182 315.4 9.4 311 10.6
2007-01-08 08:03:18 51°14.313 2°55.166 315.2 9.4 310 10.4
2007-01-08 08:03:24 51°14.323 2°55.147 314.3 9.4 310 10.5
2007-01-08 08:03:28 51°14.33 2°55.134 313.9 9.5 309 10.2
2007-01-08 08:03:33 51°14.338 2°55.117 313.7 9.6 309 9.8
2007-01-08 08:03:38 51°14.346 2°55.1 313.2 9.7 308 10.5
2007-01-08 08:03:43 51°14.355 2°55.083 312.8 9.9 308 10.4
2007-01-08 08:03:49 51°14.365 2°55.062 312.4 9.9 307 10.1
2007-01-08 08:03:53 51°14.371 2°55.048 312.2 10 306 9.9
2007-01-08 08:03:58 51°14.379 2°55.03 311.8 10.1 306 9.9
2007-01-08 08:04:03 51°14.387 2°55.011 311.1 10.2 303 9.9
2007-01-08 08:04:09 51°14.396 2°54.987 308.8 10.3 300 9.9
2007-01-08 08:04:14 51°14.402 2°54.967 306 10.4 296 10.2
2007-01-08 08:04:18 51°14.406 2°54.95 302.6 10.5 293 10.1
2007-01-08 08:04:23 51°14.411 2°54.928 299.4 10.5 290 10.1
2007-01-08 08:04:28 51°14.416 2°54.906 296.2 10.6 288 10.2
2007-01-08 08:04:34 51°14.421 2°54.879 293.9 10.7 286 10.1
2007-01-08 08:04:38 51°14.424 2°54.86 292.2 10.7 284 10.2
2007-01-08 08:04:44 51°14.427 2°54.833 291 10.7 282 10.1
2007-01-08 08:04:48 51°14.429 2°54.814 288.2 10.8 278 10.2
2007-01-08 08:04:53 51°14.431 2°54.79 284.7 10.8 276 10.1
2007-01-08 08:04:58 51°14.432 2°54.766 281.8 10.9 273 10
2007-01-08 08:05:04 51°14.432 2°54.737 279.5 10.9 271 10.2
2007-01-08 08:05:08 51°14.432 2°54.717 277.3 11.1 270 9.9
2007-01-08 08:05:13 51°14.432 2°54.692 276.1 11.5 271 10.5
2007-01-08 08:05:18 51°14.432 2°54.666 275.8 11.7 270 10.3
2007-01-08 08:05:24 51°14.433 2°54.634 276.3 12 270 10.3
2007-01-08 08:05:28 51°14.432 2°54.613 276.2 12.2 267 10.4
2007-01-08 08:05:33 51°14.43 2°54.585 273.6 12.5 263 10.2
2007-01-08 08:05:38 51°14.427 2°54.558 270.7 12.8 259 10
2007-01-08 08:05:44 51°14.421 2°54.525 265.3 12.9 256 9.9
2007-01-08 08:05:48 51°14.418 2°54.503 262 13 254 9.8
2007-01-08 08:05:53 51°14.412 2°54.475 259.8 13.2 252 9.8
2007-01-08 08:05:58 51°14.406 2°54.447 258.4 13.2 251 9.5
2007-01-08 08:06:03 51°14.4 2°54.42 257 13.2 247 9.1
2007-01-08 08:06:09 51°14.39 2°54.388 252.9 13.3 244 8.9
2007-01-08 08:06:13 51°14.383 2°54.368 249.6 13.2 241 8.6
2007-01-08 08:06:18 51°14.373 2°54.343 247.1 13.4 238 8.8
2007-01-08 08:06:23 51°14.364 2°54.317 243.7 13.5 241 8.6
2007-01-08 08:06:29 51°14.353 2°54.286 243.8 13.4 242 8.3
2007-01-08 08:06:34 51°14.345 2°54.259 245.9 13.5 242 8.5
2007-01-08 08:06:38 51°14.338 2°54.239 245.8 13.6 241 8.4
2007-01-08 08:06:44 51°14.327 2°54.207 245.7 13.5 242 8.5
2007-01-08 08:06:48 51°14.32 2°54.186 246.3 13.5 242 8.7
2007-01-08 08:06:53 51°14.311 2°54.159 245.6 13.6 242 8.6
2007-01-08 08:06:58 51°14.302 2°54.133 246 13.6 242 8.8
2007-01-08 08:07:04 51°14.291 2°54.101 246.3 13.6 241 8.5
2007-01-08 08:07:08 51°14.284 2°54.079 245.8 13.7 242 8.8
2007-01-08 08:07:13 51°14.275 2°54.053 245.8 13.7 241 8.5
2007-01-08 08:07:18 51°14.266 2°54.026 246 13.8 242 8.6
2007-01-08 08:07:24 51°14.256 2°53.994 245.8 13.7 242 8.5
2007-01-08 08:07:28 51°14.248 2°53.972 245.8 13.7 242 8.5
2007-01-08 08:07:33 51°14.24 2°53.945 246.1 13.8 243 8.6
2007-01-08 08:07:39 51°14.229 2°53.913 246.3 13.7 242 8.4
2007-01-08 08:07:44 51°14.22 2°53.886 246.2 13.7 241 8.5
2007-01-08 08:07:48 51°14.213 2°53.865 246.2 13.8 243 8.6
2007-01-08 08:07:53 51°14.204 2°53.838 246.5 13.9 243 8.5
2007-01-08 08:07:58 51°14.195 2°53.811 246.7 13.8 242 8.6
2007-01-08 08:08:03 51°14.186 2°53.784 246.5 13.8 242 8.5
2007-01-08 08:08:09 51°14.175 2°53.752 246.1 13.8 241 8.5
2007-01-08 08:08:13 51°14.168 2°53.73 246.4 13.9 242 8.6
2007-01-08 08:08:18 51°14.159 2°53.703 246 14 242 8.6
2007-01-08 08:08:23 51°14.15 2°53.676 246.5 13.8 241 8.4
2007-01-08 08:08:29 51°14.139 2°53.643 246.5 13.9 242 8.8
2007-01-08 08:08:34 51°14.13 2°53.616 246.6 13.9 243 8.7
2007-01-08 08:08:38 51°14.123 2°53.595 246.4 13.8 241 8.6
2007-01-08 08:08:43 51°14.114 2°53.568 246.2 13.9 243 8.7
2007-01-08 08:08:48 51°14.105 2°53.54 246.7 13.9 243 8.8
2007-01-08 08:08:53 51°14.096 2°53.513 246.9 13.9 242 8.8
2007-01-08 08:08:58 51°14.087 2°53.486 247.2 13.9 242 8.8
2007-01-08 08:09:04 51°14.076 2°53.453 246.8 13.9 240 8.8
2007-01-08 08:09:08 51°14.068 2°53.432 245.3 14 240 8.7
2007-01-08 08:09:13 51°14.058 2°53.405 244.5 14.1 239 8.8
2007-01-08 08:09:18 51°14.048 2°53.379 243.7 14 239 8.9
2007-01-08 08:09:23 51°14.037 2°53.353 243.4 14 236 8.8
2007-01-08 08:09:28 51°14.027 2°53.327 242.2 14 239 8.8
2007-01-08 08:09:33 51°14.016 2°53.3 241.9 13.9 237 8.8
2007-01-08 08:09:38 51°14.007 2°53.274 242.3 14 238 9.1
2007-01-08 08:09:44 51°13.994 2°53.243 242.5 14 238 8.9
2007-01-08 08:09:48 51°13.986 2°53.221 242.5 13.9 239 9
2007-01-08 08:09:53 51°13.976 2°53.195 242.7 14 238 8.9
2007-01-08 08:09:58 51°13.965 2°53.169 242.7 14.1 239 9.1
2007-01-08 08:10:04 51°13.953 2°53.138 243.1 14 238 8.9
2007-01-08 08:10:08 51°13.945 2°53.116 242.9 14 239 9.1
2007-01-08 08:10:13 51°13.935 2°53.09 242.7 14.1 238 9
2007-01-08 08:10:18 51°13.925 2°53.063 243.1 14 239 9.1
2007-01-08 08:10:23 51°13.915 2°53.036 243.1 14.1 239 9.3
2007-01-08 08:10:29 51°13.903 2°53.004 242.8 14.2 239 9.2
2007-01-08 08:10:33 51°13.895 2°52.983 243 14.1 238 9.1
2007-01-08 08:10:38 51°13.884 2°52.957 243 14.1 238 9.2
2007-01-08 08:10:43 51°13.874 2°52.931 242.4 14.1 238 9
2007-01-08 08:10:48 51°13.864 2°52.904 242.3 14.2 239 9.2
2007-01-08 08:10:53 51°13.853 2°52.877 242.5 14 239 9
2007-01-08 08:10:58 51°13.844 2°52.851 242.7 14 239 9.2
2007-01-08 08:11:04 51°13.831 2°52.819 243.1 14.1 239 9.3
2007-01-08 08:11:09 51°13.821 2°52.792 242.9 14.1 240 9.3
2007-01-08 08:11:13 51°13.813 2°52.771 243.3 14.1 238 9.2
2007-01-08 08:11:18 51°13.803 2°52.744 242.9 14.2 239 9.4
2007-01-08 08:11:23 51°13.793 2°52.718 243.1 14.1 239 9.3
2007-01-08 08:11:28 51°13.783 2°52.691 243.2 14.1 239 9.4
2007-01-08 08:11:33 51°13.773 2°52.664 243 14.1 239 9.4
2007-01-08 08:11:38 51°13.763 2°52.637 243 14.1 239 9.4
2007-01-08 08:11:44 51°13.751 2°52.605 243.4 14.1 239 9.5
2007-01-08 08:11:48 51°13.742 2°52.584 243.2 14 238 9.4
2007-01-08 08:11:53 51°13.732 2°52.558 242.7 14.1 238 9.5
2007-01-08 08:11:59 51°13.719 2°52.526 242.8 14.2 238 9.4
2007-01-08 08:12:04 51°13.709 2°52.499 242.5 14.2 239 9.4
2007-01-08 08:12:08 51°13.701 2°52.478 242.7 14 238 9.3
2007-01-08 08:12:13 51°13.691 2°52.452 242.4 14 239 9.5
2007-01-08 08:12:18 51°13.681 2°52.425 242.5 14 238 9.4
2007-01-08 08:12:24 51°13.668 2°52.394 242.4 14.1 239 9.5
2007-01-08 08:12:29 51°13.658 2°52.367 242.6 14.1 238 9.3
2007-01-08 08:12:33 51°13.65 2°52.346 242.7 14.1 238 9.4
2007-01-08 08:12:38 51°13.64 2°52.319 242.8 14.1 239 9.4
2007-01-08 08:12:44 51°13.627 2°52.287 242.8 14.1 238 9.6
2007-01-08 08:12:49 51°13.617 2°52.26 242.7 14.2 239 9.6
2007-01-08 08:12:53 51°13.609 2°52.239 243.2 14.1 238 9.6
2007-01-08 08:12:58 51°13.599 2°52.213 243.1 14.1 239 9.5
2007-01-08 08:13:03 51°13.588 2°52.186 243.1 14 238 9.4
2007-01-08 08:13:08 51°13.578 2°52.16 243 14 238 9.5
2007-01-08 08:13:13 51°13.568 2°52.133 242.7 14 238 9.5
2007-01-08 08:13:18 51°13.558 2°52.106 242.5 14.1 240 9.5
2007-01-08 08:13:23 51°13.548 2°52.08 243.1 14.1 239 9.5
2007-01-08 08:13:28 51°13.538 2°52.053 243.3 14 238 9.5
2007-01-08 08:13:33 51°13.528 2°52.026 243.5 14.1 240 9.7
2007-01-08 08:13:38 51°13.518 2°52 243.2 14 239 9.5
2007-01-08 08:13:43 51°13.508 2°51.973 243.5 14.2 239 9.6
2007-01-08 08:13:48 51°13.498 2°51.946 243.5 13.9 240 9.5
2007-01-08 08:13:53 51°13.488 2°51.92 243.4 14.1 238 9.8
2007-01-08 08:13:58 51°13.478 2°51.893 243.4 14.1 240 9.5
2007-01-08 08:14:04 51°13.466 2°51.861 243.4 14.1 239 9.5
2007-01-08 08:14:08 51°13.459 2°51.84 244.2 14 240 9.6
2007-01-08 08:14:13 51°13.449 2°51.813 243.8 14 241 9.7
2007-01-08 08:14:18 51°13.439 2°51.786 244.2 14.1 239 9.6
2007-01-08 08:14:24 51°13.427 2°51.754 243.7 14 240 9.7
2007-01-08 08:14:28 51°13.419 2°51.733 243.6 14.1 238 9.8
2007-01-08 08:14:33 51°13.409 2°51.706 242.9 14.1 239 9.8
2007-01-08 08:14:38 51°13.399 2°51.68 242.7 14.1 238 9.6
2007-01-08 08:14:44 51°13.387 2°51.648 243 14.1 239 9.7
2007-01-08 08:14:49 51°13.377 2°51.621 242.8 14 240 9.6
2007-01-08 08:14:53 51°13.369 2°51.6 243.1 14 239 9.6
2007-01-08 08:14:58 51°13.359 2°51.573 243.5 13.9 239 9.7
2007-01-08 08:15:03 51°13.348 2°51.547 243.1 14 239 9.9
2007-01-08 08:15:08 51°13.339 2°51.52 243.3 14 240 9.6
2007-01-08 08:15:13 51°13.329 2°51.494 243.6 13.9 240 9.6
2007-01-08 08:15:18 51°13.319 2°51.467 243.8 14 239 9.7
2007-01-08 08:15:23 51°13.309 2°51.44 243.2 14 240 9.7
2007-01-08 08:15:29 51°13.297 2°51.408 244.1 14 238 9.7
2007-01-08 08:15:33 51°13.289 2°51.387 243.5 14.1 240 9.8
2007-01-08 08:15:38 51°13.279 2°51.36 243.7 14 238 9.7
2007-01-08 08:15:43 51°13.269 2°51.333 243.2 14 240 9.7
2007-01-08 08:15:48 51°13.259 2°51.307 243.3 14.1 239 9.7
2007-01-08 08:15:54 51°13.246 2°51.275 243.2 14.1 239 9.6
2007-01-08 08:15:58 51°13.238 2°51.254 242.8 14.1 238 9.8
2007-01-08 08:16:04 51°13.226 2°51.222 242.8 14.1 239 9.5
2007-01-08 08:16:08 51°13.218 2°51.201 242.7 14.2 239 9.6
2007-01-08 08:16:13 51°13.208 2°51.174 242.8 14.1 238 9.6
2007-01-08 08:16:19 51°13.196 2°51.142 242.5 14.2 239 9.7
2007-01-08 08:16:24 51°13.186 2°51.116 242.9 14.1 239 9.7
2007-01-08 08:16:28 51°13.177 2°51.094 243 14.1 239 9.8
2007-01-08 08:16:33 51°13.168 2°51.067 243 14.1 239 9.7
2007-01-08 08:16:38 51°13.157 2°51.041 243.4 14.1 239 9.8
2007-01-08 08:16:44 51°13.145 2°51.008 243.1 14.2 239 9.9
2007-01-08 08:16:49 51°13.135 2°50.982 242.9 14.2 239 9.6
2007-01-08 08:16:53 51°13.127 2°50.96 243.5 14.1 239 9.7
2007-01-08 08:16:58 51°13.117 2°50.933 243.3 14.2 239 9.7
2007-01-08 08:17:04 51°13.105 2°50.901 243.2 14.2 240 9.8
2007-01-08 08:17:08 51°13.097 2°50.88 243.8 14.2 239 9.8
2007-01-08 08:17:13 51°13.087 2°50.852 243.4 14.2 239 9.6
2007-01-08 08:17:18 51°13.077 2°50.826 243.1 14.2 239 9.8
2007-01-08 08:17:24 51°13.065 2°50.793 243.1 14.2 239 9.8
2007-01-08 08:17:28 51°13.056 2°50.772 243 14.2 239 9.8
2007-01-08 08:17:33 51°13.046 2°50.745 242.7 14.2 239 9.8
2007-01-08 08:17:38 51°13.037 2°50.718 243.4 14.1 240 9.8
2007-01-08 08:17:43 51°13.027 2°50.691 244.1 14.1 240 9.9
2007-01-08 08:17:49 51°13.015 2°50.658 244.4 14.2 241 9.6
2007-01-08 08:17:53 51°13.007 2°50.636 244.4 14.2 241 9.7
2007-01-08 08:17:58 51°12.998 2°50.609 245.2 14.2 241 9.7
2007-01-08 08:18:03 51°12.988 2°50.581 245.2 14.3 242 9.7
2007-01-08 08:18:08 51°12.979 2°50.553 244.9 14.1 240 9.7
2007-01-08 08:18:14 51°12.967 2°50.521 245.2 14.3 241 9.9
2007-01-08 08:18:18 51°12.959 2°50.499 245 14.1 241 9.7
2007-01-08 08:18:24 51°12.948 2°50.466 245.5 14.3 241 9.9
2007-01-08 08:18:28 51°12.94 2°50.443 245.5 14.2 242 9.7
2007-01-08 08:18:33 51°12.931 2°50.416 246 14.2 241 9.8
2007-01-08 08:18:38 51°12.921 2°50.389 245.6 14.3 241 9.9
2007-01-08 08:18:44 51°12.909 2°50.356 245.7 14.1 240 9.7
2007-01-08 08:18:48 51°12.902 2°50.334 245.3 14.2 241 9.9
2007-01-08 08:18:53 51°12.893 2°50.307 245.3 14.2 241 9.7
2007-01-08 08:18:58 51°12.883 2°50.279 245.2 14.2 242 9.9
2007-01-08 08:19:04 51°12.872 2°50.246 245.3 14.3 241 9.8
2007-01-08 08:19:08 51°12.864 2°50.224 245.3 14.2 241 9.8
2007-01-08 08:19:13 51°12.854 2°50.197 245.4 14.2 241 9.8
2007-01-08 08:19:18 51°12.845 2°50.169 245.3 14.3 241 9.9
2007-01-08 08:19:24 51°12.833 2°50.136 245.2 14.3 241 9.8
2007-01-08 08:19:28 51°12.826 2°50.114 245.5 14.2 241 9.8
2007-01-08 08:19:33 51°12.816 2°50.087 245.3 14.2 241 9.8
2007-01-08 08:19:38 51°12.807 2°50.06 245.2 14.2 241 9.8
2007-01-08 08:19:43 51°12.798 2°50.032 245.3 14.2 242 9.9
2007-01-08 08:19:49 51°12.786 2°49.999 245.9 14.2 241 9.8
2007-01-08 08:19:53 51°12.778 2°49.977 245.3 14.2 241 9.8
2007-01-08 08:19:58 51°12.769 2°49.95 245.4 14.1 241 9.9
2007-01-08 08:20:03 51°12.759 2°49.922 245.3 14.3 241 10
2007-01-08 08:20:08 51°12.75 2°49.894 244.9 14.2 242 9.8
2007-01-08 08:20:14 51°12.739 2°49.861 245.5 14.2 241 10
2007-01-08 08:20:18 51°12.731 2°49.839 245.3 14.2 242 10.1
2007-01-08 08:20:24 51°12.72 2°49.806 245.2 14.3 242 10
2007-01-08 08:20:28 51°12.712 2°49.784 245.9 14.2 242 10
2007-01-08 08:20:34 51°12.701 2°49.751 245.5 14.2 242 10
2007-01-08 08:20:38 51°12.694 2°49.728 245.7 14.2 242 10
2007-01-08 08:20:44 51°12.682 2°49.695 245.6 14.3 241 10
2007-01-08 08:20:48 51°12.675 2°49.673 245.5 14.2 241 10
2007-01-08 08:20:53 51°12.665 2°49.645 245.2 14.3 241 10
2007-01-08 08:20:58 51°12.656 2°49.617 245.2 14.2 242 10.1
2007-01-08 08:21:04 51°12.644 2°49.584 245.5 14.3 241 10.2
2007-01-08 08:21:08 51°12.637 2°49.562 245.2 14.3 242 10
2007-01-08 08:21:13 51°12.627 2°49.534 245.3 14.3 242 10.1
2007-01-08 08:21:19 51°12.616 2°49.501 245.5 14.3 242 10.2
2007-01-08 08:21:24 51°12.607 2°49.473 245.3 14.2 242 10
2007-01-08 08:21:28 51°12.599 2°49.451 246 14.3 241 10.1
2007-01-08 08:21:33 51°12.589 2°49.424 245.3 14.1 241 9.9
2007-01-08 08:21:38 51°12.58 2°49.397 245.5 14.2 240 10.2
2007-01-08 08:21:44 51°12.568 2°49.364 244.8 14.2 242 10
2007-01-08 08:21:49 51°12.559 2°49.336 245.2 14.2 241 10
2007-01-08 08:21:53 51°12.552 2°49.314 245.4 14.2 242 10.1
2007-01-08 08:21:58 51°12.542 2°49.287 245.4 14.1 241 10.1
2007-01-08 08:22:03 51°12.533 2°49.259 245.7 14.1 242 10.1
2007-01-08 08:22:09 51°12.522 2°49.226 245.5 14.2 241 10.1
2007-01-08 08:22:13 51°12.514 2°49.204 245.5 14.2 242 10.1
2007-01-08 08:22:18 51°12.505 2°49.177 245.7 14.2 240 10.2
2007-01-08 08:22:24 51°12.493 2°49.144 245.1 14.1 241 10.2
2007-01-08 08:22:29 51°12.483 2°49.117 244.4 14.2 241 10.3
2007-01-08 08:22:34 51°12.474 2°49.089 244.5 14.2 241 10.1
2007-01-08 08:22:38 51°12.466 2°49.067 244.4 14.1 242 10.1
2007-01-08 08:22:44 51°12.455 2°49.034 245 14.3 242 10.2
2007-01-08 08:22:48 51°12.447 2°49.012 245.2 14.2 242 10
2007-01-08 08:22:53 51°12.438 2°48.984 245.5 14.2 242 10.1
2007-01-08 08:22:58 51°12.429 2°48.957 245.9 14.2 242 10.1
2007-01-08 08:23:04 51°12.418 2°48.924 245.7 14.2 243 10.2
2007-01-08 08:23:08 51°12.411 2°48.902 246.1 14.2 242 10.2
2007-01-08 08:23:13 51°12.401 2°48.874 245.7 14.2 242 10.1
2007-01-08 08:23:18 51°12.392 2°48.846 245.3 14.1 241 10.2
2007-01-08 08:23:24 51°12.381 2°48.813 245.3 14.1 241 10.4
2007-01-08 08:23:28 51°12.373 2°48.791 244.9 14.2 242 10.3
2007-01-08 08:23:33 51°12.364 2°48.763 245 14.2 241 10.2
2007-01-08 08:23:38 51°12.354 2°48.736 245.5 14.3 242 10.3
2007-01-08 08:23:44 51°12.343 2°48.703 245.8 14.2 241 10.1
2007-01-08 08:23:48 51°12.336 2°48.68 245.4 14.3 242 10.3
2007-01-08 08:23:53 51°12.326 2°48.653 246 14.2 242 10.2
2007-01-08 08:23:58 51°12.317 2°48.625 246 14.2 241 10.2
2007-01-08 08:24:04 51°12.306 2°48.591 245.7 14.2 242 10.2
2007-01-08 08:24:09 51°12.297 2°48.564 245.7 14.2 241 10.2
2007-01-08 08:24:13 51°12.289 2°48.542 245.5 14.3 241 10.3
2007-01-08 08:24:18 51°12.279 2°48.515 245.5 14.2 241 10.2
2007-01-08 08:24:23 51°12.27 2°48.487 245.5 14.2 241 10.3
2007-01-08 08:24:29 51°12.259 2°48.453 244.9 14.3 242 10.3
2007-01-08 08:24:34 51°12.25 2°48.426 245.4 14.2 242 10.2
2007-01-08 08:24:38 51°12.242 2°48.404 245.6 14.2 242 10.2
2007-01-08 08:24:44 51°12.231 2°48.371 245.3 14.2 242 10.3
2007-01-08 08:24:48 51°12.223 2°48.348 245.8 14.2 242 10.4
2007-01-08 08:24:53 51°12.214 2°48.321 245.5 14.2 240 10.3
2007-01-08 08:24:58 51°12.204 2°48.294 245.1 14.3 241 10.4
2007-01-08 08:25:04 51°12.193 2°48.261 244.6 14.2 242 10.3
2007-01-08 08:25:08 51°12.185 2°48.239 245.3 14.3 241 10.4
2007-01-08 08:25:14 51°12.174 2°48.206 245.2 14.2 241 10.2
2007-01-08 08:25:18 51°12.166 2°48.183 245.1 14.3 241 10.3
2007-01-08 08:25:24 51°12.155 2°48.15 244.7 14.2 242 10.2
2007-01-08 08:25:28 51°12.147 2°48.128 245.4 14.2 241 10.3
2007-01-08 08:25:33 51°12.138 2°48.1 245.3 14.1 242 10.4
2007-01-08 08:25:39 51°12.127 2°48.068 245.8 14.3 241 10.5
2007-01-08 08:25:44 51°12.117 2°48.04 245.3 14.3 241 10.2
2007-01-08 08:25:48 51°12.11 2°48.018 244.8 14.2 242 10.2
2007-01-08 08:25:53 51°12.1 2°47.99 245.3 14.3 241 10.3
2007-01-08 08:25:59 51°12.089 2°47.956 244.9 14.4 243 10.2
2007-01-08 08:26:04 51°12.08 2°47.929 245.7 14.3 242 10.2
2007-01-08 08:26:09 51°12.071 2°47.901 245.9 14.3 243 10.4
2007-01-08 08:26:13 51°12.063 2°47.878 246.3 14.3 241 10.4
2007-01-08 08:26:18 51°12.054 2°47.85 245.9 14.3 243 10.3
2007-01-08 08:26:24 51°12.042 2°47.817 245.7 14.3 241 10.3
2007-01-08 08:26:29 51°12.033 2°47.789 245.3 14.4 243 10.3
2007-01-08 08:26:34 51°12.024 2°47.761 245.3 14.3 241 10.2
2007-01-08 08:26:38 51°12.016 2°47.739 245.2 14.2 242 10.3
2007-01-08 08:26:44 51°12.005 2°47.706 245.4 14.3 242 10.5
2007-01-08 08:26:49 51°11.996 2°47.678 245.4 14.3 243 10.3
2007-01-08 08:26:53 51°11.988 2°47.656 245.7 14.2 242 10.3
2007-01-08 08:26:58 51°11.979 2°47.628 245.8 14.4 241 10.3
2007-01-08 08:27:04 51°11.968 2°47.594 245.5 14.3 242 10.2
2007-01-08 08:27:08 51°11.96 2°47.572 245.2 14.2 241 10.3
2007-01-08 08:27:14 51°11.949 2°47.539 244.8 14.3 241 10.4
2007-01-08 08:27:18 51°11.941 2°47.517 244.5 14.4 241 10.2
2007-01-08 08:27:23 51°11.931 2°47.49 244.6 14.2 241 10.1
2007-01-08 08:27:28 51°11.922 2°47.462 244.5 14.2 242 10.2
2007-01-08 08:27:33 51°11.912 2°47.435 244.9 14.4 241 10.2
2007-01-08 08:27:38 51°11.903 2°47.407 244.7 14.3 243 10.1
2007-01-08 08:27:44 51°11.892 2°47.374 245.3 14.2 241 10.1
2007-01-08 08:27:48 51°11.885 2°47.351 245.5 14.1 243 10.2
2007-01-08 08:27:53 51°11.875 2°47.324 245.6 14.1 241 10.2
2007-01-08 08:27:59 51°11.864 2°47.291 245.7 14.3 242 10.2
2007-01-08 08:28:04 51°11.855 2°47.263 245.5 14.3 242 10
2007-01-08 08:28:08 51°11.848 2°47.241 245.3 14.2 241 10.1
2007-01-08 08:28:13 51°11.838 2°47.213 245.2 14.2 242 10.2
2007-01-08 08:28:18 51°11.828 2°47.186 245 14.3 241 10.1
2007-01-08 08:28:24 51°11.817 2°47.152 244.5 14.3 242 10.1
2007-01-08 08:28:29 51°11.808 2°47.125 245.1 14.2 242 10.2
2007-01-08 08:28:33 51°11.8 2°47.103 245.2 14.3 241 10
2007-01-08 08:28:38 51°11.791 2°47.075 244.9 14.3 242 10
2007-01-08 08:28:43 51°11.781 2°47.047 244.9 14.3 242 10
2007-01-08 08:28:49 51°11.77 2°47.013 245.2 14.3 242 10
2007-01-08 08:28:53 51°11.763 2°46.991 245.8 14.3 242 10.1
2007-01-08 08:28:58 51°11.754 2°46.963 245.3 14.4 242 10
2007-01-08 08:29:04 51°11.742 2°46.93 245.4 14.3 241 9.8
2007-01-08 08:29:09 51°11.733 2°46.902 245.2 14.2 243 9.9
2007-01-08 08:29:13 51°11.726 2°46.88 245.3 14.3 241 9.9
2007-01-08 08:29:18 51°11.716 2°46.852 245.3 14.3 242 9.9
2007-01-08 08:29:23 51°11.707 2°46.824 245.2 14.3 242 9.9
2007-01-08 08:29:28 51°11.697 2°46.796 245.3 14.3 242 9.9
2007-01-08 08:29:34 51°11.686 2°46.763 245 14.3 242 9.9
2007-01-08 08:29:38 51°11.679 2°46.741 245.2 14.3 241 9.9
2007-01-08 08:29:44 51°11.667 2°46.707 245.2 14.3 241 9.8
2007-01-08 08:29:48 51°11.66 2°46.685 245.2 14.2 242 9.9
2007-01-08 08:29:53 51°11.65 2°46.657 245.1 14.3 241 9.8
2007-01-08 08:29:59 51°11.64 2°46.624 244.6 14.3 243 9.8
2007-01-08 08:30:04 51°11.63 2°46.596 245.9 14.2 241 9.9
2007-01-08 08:30:08 51°11.623 2°46.574 245 14.3 242 9.9
2007-01-08 08:30:13 51°11.613 2°46.546 245.3 14.4 243 9.9
2007-01-08 08:30:19 51°11.602 2°46.512 245.8 14.3 242 9.8
2007-01-08 08:30:24 51°11.593 2°46.484 245.7 14.4 243 9.9
2007-01-08 08:30:29 51°11.584 2°46.456 245.8 14.2 243 9.7
2007-01-08 08:30:33 51°11.577 2°46.434 246.3 14.3 242 9.9
2007-01-08 08:30:38 51°11.568 2°46.405 245.8 14.4 244 9.9
2007-01-08 08:30:44 51°11.557 2°46.371 246.5 14.3 243 9.8
2007-01-08 08:30:49 51°11.549 2°46.343 246.8 14.3 245 9.9
2007-01-08 08:30:53 51°11.541 2°46.32 247.4 14.3 243 9.9
2007-01-08 08:30:58 51°11.533 2°46.292 247.2 14.3 244 9.8
2007-01-08 08:31:04 51°11.522 2°46.257 247.3 14.4 244 9.9
2007-01-08 08:31:09 51°11.514 2°46.229 247.3 14.3 244 9.9
2007-01-08 08:31:13 51°11.507 2°46.206 247.3 14.4 244 9.9
2007-01-08 08:31:18 51°11.498 2°46.177 247.6 14.4 245 9.8
2007-01-08 08:31:23 51°11.489 2°46.149 247.5 14.2 244 9.7
2007-01-08 08:31:29 51°11.478 2°46.115 247.3 14.3 244 9.8
2007-01-08 08:31:34 51°11.47 2°46.086 247.9 14.3 244 9.7
2007-01-08 08:31:38 51°11.463 2°46.064 247.7 14.3 245 9.7
2007-01-08 08:31:44 51°11.453 2°46.029 247.8 14.3 244 9.8
2007-01-08 08:31:48 51°11.446 2°46.007 247.8 14.3 244 9.6
2007-01-08 08:31:53 51°11.437 2°45.978 247.5 14.3 244 9.7
2007-01-08 08:31:58 51°11.429 2°45.95 247.8 14.3 244 9.7
2007-01-08 08:32:04 51°11.418 2°45.916 247.6 14.1 243 9.6
2007-01-08 08:32:08 51°11.411 2°45.894 247.5 14.3 243 9.7
2007-01-08 08:32:14 51°11.401 2°45.859 246.6 14.3 246 9.6
2007-01-08 08:32:19 51°11.392 2°45.831 247.9 14.3 243 9.6
2007-01-08 08:32:24 51°11.384 2°45.803 247.4 14.2 245 9.6
2007-01-08 08:32:28 51°11.376 2°45.78 247.5 14.2 243 9.7
2007-01-08 08:32:33 51°11.367 2°45.752 247.2 14.3 245 9.7
2007-01-08 08:32:38 51°11.359 2°45.724 247.3 14.3 243 9.6
2007-01-08 08:32:44 51°11.349 2°45.689 247.4 14.3 245 9.6
2007-01-08 08:32:49 51°11.34 2°45.661 247.7 14.3 244 9.6
2007-01-08 08:32:53 51°11.333 2°45.638 247.5 14.2 245 9.5
2007-01-08 08:32:58 51°11.324 2°45.61 247.6 14.3 244 9.6
2007-01-08 08:33:04 51°11.314 2°45.576 247.3 14.3 244 9.5
2007-01-08 08:33:08 51°11.307 2°45.554 247.1 14.3 243 9.4
2007-01-08 08:33:13 51°11.298 2°45.525 247.3 14.3 246 9.4
2007-01-08 08:33:18 51°11.289 2°45.497 247.6 14.3 243 9.4
2007-01-08 08:33:23 51°11.281 2°45.468 247.1 14.2 244 9.3
2007-01-08 08:33:29 51°11.271 2°45.435 247.3 14.1 244 9.4
2007-01-08 08:33:33 51°11.263 2°45.412 247.3 14.2 243 9.4
2007-01-08 08:33:38 51°11.255 2°45.384 246.8 14.3 245 9.4
2007-01-08 08:33:43 51°11.246 2°45.356 247.2 14.3 244 9.3
2007-01-08 08:33:49 51°11.236 2°45.322 247.2 14.2 245 9.3
2007-01-08 08:33:54 51°11.227 2°45.294 247.5 14.2 244 9.3
2007-01-08 08:33:58 51°11.22 2°45.271 247.4 14.3 245 9.2
2007-01-08 08:34:04 51°11.21 2°45.237 247.4 14.3 244 9.3
2007-01-08 08:34:08 51°11.203 2°45.214 247.5 14.2 244 9.2
2007-01-08 08:34:14 51°11.193 2°45.18 247.7 14.2 244 9.2
2007-01-08 08:34:19 51°11.184 2°45.152 247.3 14.3 244 9.2
2007-01-08 08:34:24 51°11.176 2°45.123 247.4 14.2 244 9.1
2007-01-08 08:34:28 51°11.169 2°45.101 247.5 14.2 244 9.2
2007-01-08 08:34:33 51°11.16 2°45.072 247.4 14.3 245 9.2
2007-01-08 08:34:38 51°11.152 2°45.044 247.7 14.4 244 9.1
2007-01-08 08:34:44 51°11.142 2°45.009 247.3 14.3 245 9.1
2007-01-08 08:34:49 51°11.133 2°44.981 247.5 14.3 243 9
2007-01-08 08:34:53 51°11.126 2°44.958 247.1 14.3 245 9
2007-01-08 08:34:58 51°11.117 2°44.93 246.9 14.3 244 9
2007-01-08 08:35:04 51°11.107 2°44.896 247.1 14.3 244 9
2007-01-08 08:35:08 51°11.1 2°44.873 246.7 14.3 244 9
2007-01-08 08:35:13 51°11.091 2°44.845 247 14.2 243 8.9
2007-01-08 08:35:18 51°11.082 2°44.817 246.7 14.3 244 9
2007-01-08 08:35:24 51°11.072 2°44.783 246.9 14.3 243 8.8
2007-01-08 08:35:29 51°11.063 2°44.754 247 14.3 245 8.9
2007-01-08 08:35:33 51°11.057 2°44.732 247.1 14.3 244 9
2007-01-08 08:35:38 51°11.048 2°44.703 247.2 14.3 245 9
2007-01-08 08:35:43 51°11.04 2°44.675 247.5 14.2 245 9
2007-01-08 08:35:49 51°11.029 2°44.641 247.7 14.1 244 9
2007-01-08 08:35:54 51°11.021 2°44.613 247.8 14.2 245 9
2007-01-08 08:35:58 51°11.014 2°44.59 247.5 14.3 245 8.9
2007-01-08 08:36:04 51°11.004 2°44.555 247.8 14.2 245 8.9
2007-01-08 08:36:08 51°10.998 2°44.533 248.2 14.2 245 8.9
2007-01-08 08:36:14 51°10.987 2°44.499 247.9 14.3 244 8.9
2007-01-08 08:36:19 51°10.979 2°44.47 247.5 14.2 245 8.9
2007-01-08 08:36:24 51°10.971 2°44.442 247.8 14.2 244 8.8
2007-01-08 08:36:28 51°10.964 2°44.419 247.4 14.2 245 8.8
2007-01-08 08:36:33 51°10.955 2°44.391 247.5 14.3 244 8.9
2007-01-08 08:36:38 51°10.947 2°44.363 247.2 14.4 244 8.7
2007-01-08 08:36:44 51°10.936 2°44.328 247.1 14.2 244 8.7
2007-01-08 08:36:48 51°10.929 2°44.306 247.4 14.2 244 8.8
2007-01-08 08:36:53 51°10.921 2°44.278 246.9 14.2 244 8.7
2007-01-08 08:36:58 51°10.912 2°44.249 247 14.2 244 8.7
2007-01-08 08:37:04 51°10.902 2°44.215 246.7 14.3 245 8.7
2007-01-08 08:37:08 51°10.895 2°44.193 246.9 14.4 244 8.7
2007-01-08 08:37:13 51°10.887 2°44.164 247.1 14.2 245 8.6
2007-01-08 08:37:18 51°10.878 2°44.136 247.3 14.2 244 8.5
2007-01-08 08:37:24 51°10.868 2°44.102 246.9 14.2 245 8.6
2007-01-08 08:37:28 51°10.861 2°44.079 247.3 14.3 245 8.6
2007-01-08 08:37:33 51°10.853 2°44.051 247.4 14.3 244 8.6
2007-01-08 08:37:38 51°10.844 2°44.022 247.4 14.2 246 8.6
2007-01-08 08:37:44 51°10.834 2°43.988 247.5 14.2 245 8.6
2007-01-08 08:37:49 51°10.826 2°43.96 247.4 14.2 245 8.5
2007-01-08 08:37:53 51°10.819 2°43.937 247.6 14.2 244 8.6
2007-01-08 08:37:58 51°10.811 2°43.909 247.3 14.2 245 8.5
2007-01-08 08:38:03 51°10.802 2°43.881 247.6 14.3 245 8.5
2007-01-08 08:38:09 51°10.792 2°43.846 247.3 14.3 245 8.5
2007-01-08 08:38:14 51°10.784 2°43.818 247.5 14.2 245 8.5
2007-01-08 08:38:18 51°10.776 2°43.796 247 14.2 244 8.4
2007-01-08 08:38:24 51°10.766 2°43.762 246.6 14.1 243 8.4
2007-01-08 08:38:29 51°10.758 2°43.734 246.6 14.2 244 8.4
2007-01-08 08:38:34 51°10.749 2°43.706 246.2 14.2 244 8.3
2007-01-08 08:38:38 51°10.742 2°43.683 246.2 14.2 244 8.3
2007-01-08 08:38:44 51°10.732 2°43.649 246.6 14.2 245 8.4
2007-01-08 08:38:48 51°10.725 2°43.627 246.8 14.1 244 8.2
2007-01-08 08:38:54 51°10.715 2°43.593 246.8 14.1 245 8.3
2007-01-08 08:38:58 51°10.708 2°43.571 247.4 14.2 245 8.3
2007-01-08 08:39:04 51°10.698 2°43.536 247.2 14.2 245 8.2
2007-01-08 08:39:08 51°10.692 2°43.514 247.8 14.2 246 8.2
2007-01-08 08:39:13 51°10.684 2°43.485 248 14.1 246 8.2
2007-01-08 08:39:19 51°10.674 2°43.451 248.1 14.1 245 8.3
2007-01-08 08:39:24 51°10.665 2°43.423 247.9 14.1 245 8.2
2007-01-08 08:39:28 51°10.659 2°43.401 247.5 14.2 244 8.2
2007-01-08 08:39:33 51°10.65 2°43.372 246.9 14.1 245 8.2
2007-01-08 08:39:38 51°10.642 2°43.344 246.7 14.2 244 8.2
2007-01-08 08:39:44 51°10.632 2°43.311 246.9 14 244 8.1
2007-01-08 08:39:49 51°10.623 2°43.283 246.7 14.1 243 8.2
2007-01-08 08:39:53 51°10.616 2°43.26 246.1 14.1 245 8
2007-01-08 08:39:58 51°10.607 2°43.232 246.3 14.2 244 8
2007-01-08 08:40:04 51°10.598 2°43.199 246.8 14 245 7.9
2007-01-08 08:40:09 51°10.589 2°43.17 247.5 14.1 245 8
2007-01-08 08:40:14 51°10.581 2°43.142 247.2 14.1 245 7.9
2007-01-08 08:40:18 51°10.574 2°43.12 247.5 14.2 245 7.9
2007-01-08 08:40:24 51°10.565 2°43.086 247.4 14.1 246 7.9
2007-01-08 08:40:29 51°10.557 2°43.057 248.2 14.1 246 7.9
2007-01-08 08:40:34 51°10.549 2°43.029 248.3 14 245 8
2007-01-08 08:40:38 51°10.543 2°43.007 248.1 13.9 245 7.9
2007-01-08 08:40:44 51°10.533 2°42.973 247.7 14 244 8
2007-01-08 08:40:48 51°10.526 2°42.951 247.1 14.1 245 7.9
2007-01-08 08:40:54 51°10.515 2°42.918 246.7 14 244 7.9
2007-01-08 08:40:58 51°10.509 2°42.896 245.8 14 243 7.8
2007-01-08 08:41:04 51°10.498 2°42.863 245.6 13.9 243 7.7
2007-01-08 08:41:08 51°10.491 2°42.841 245.7 13.9 243 7.8
2007-01-08 08:41:14 51°10.481 2°42.807 245.6 14 244 7.8
2007-01-08 08:41:18 51°10.474 2°42.786 245.8 14.1 243 7.8
2007-01-08 08:41:24 51°10.464 2°42.752 245.8 14 244 7.7
2007-01-08 08:41:28 51°10.457 2°42.73 246.3 13.9 243 7.8
2007-01-08 08:41:33 51°10.449 2°42.702 246.1 14 246 7.9
2007-01-08 08:41:39 51°10.439 2°42.668 247 14 245 7.7
2007-01-08 08:41:44 51°10.431 2°42.64 247.8 14 246 7.8
2007-01-08 08:41:48 51°10.425 2°42.617 248.4 14 247 7.8
2007-01-08 08:41:53 51°10.418 2°42.589 249.4 14 247 7.8
2007-01-08 08:41:58 51°10.41 2°42.56 249.7 14 247 7.7
2007-01-08 08:42:04 51°10.4 2°42.527 249.4 14 246 7.8
2007-01-08 08:42:09 51°10.392 2°42.499 248.6 13.9 245 7.6
2007-01-08 08:42:13 51°10.385 2°42.476 248 14 244 7.7
2007-01-08 08:42:18 51°10.377 2°42.449 247.2 14 243 7.7
2007-01-08 08:42:24 51°10.366 2°42.415 246.3 14.1 243 7.7
2007-01-08 08:42:29 51°10.358 2°42.388 245.8 13.9 243 7.7
2007-01-08 08:42:34 51°10.349 2°42.36 245.6 13.9 244 7.8
2007-01-08 08:42:38 51°10.342 2°42.339 245.4 13.9 243 5.6
2007-01-08 08:42:44 51°10.332 2°42.305 245.5 14 243 7.8
2007-01-08 08:42:49 51°10.324 2°42.277 246 14 246 7.7
2007-01-08 08:42:54 51°10.316 2°42.249 247.8 14 246 7.7
2007-01-08 08:42:58 51°10.31 2°42.226 248.5 13.9 247 7.7
2007-01-08 08:43:04 51°10.301 2°42.193 248.9 13.9 246 7.7
2007-01-08 08:43:08 51°10.294 2°42.17 249 13.9 246 7.7
2007-01-08 08:43:13 51°10.287 2°42.142 248.3 14 245 7.7
2007-01-08 08:43:18 51°10.278 2°42.114 248.4 13.9 245 7.6
2007-01-08 08:43:24 51°10.269 2°42.081 247.6 14 246 7.7
2007-01-08 08:43:28 51°10.263 2°42.058 247.8 13.8 246 7.6
2007-01-08 08:43:34 51°10.253 2°42.024 248.3 13.9 247 7.7
2007-01-08 08:43:38 51°10.247 2°42.002 248.9 13.9 246 7.6
2007-01-08 08:43:44 51°10.238 2°41.968 249.2 13.9 245 7.7
2007-01-08 08:43:48 51°10.231 2°41.946 248.8 13.9 246 7.7
2007-01-08 08:43:53 51°10.223 2°41.918 248.2 14 246 7.7
2007-01-08 08:43:59 51°10.214 2°41.884 248.3 13.8 246 7.7
2007-01-08 08:44:04 51°10.206 2°41.856 248.8 13.9 246 7.8
2007-01-08 08:44:08 51°10.2 2°41.834 248.7 14 246 7.7
2007-01-08 08:44:13 51°10.192 2°41.805 248.3 14 246 7.7
2007-01-08 08:44:18 51°10.183 2°41.778 248.2 14 245 7.7
2007-01-08 08:44:24 51°10.174 2°41.744 247.5 13.9 246 7.7
2007-01-08 08:44:29 51°10.166 2°41.716 248.1 13.9 245 7.7
2007-01-08 08:44:33 51°10.16 2°41.694 247.8 13.9 246 7.7
2007-01-08 08:44:38 51°10.152 2°41.665 248.2 14.1 248 7.7
2007-01-08 08:44:44 51°10.144 2°41.63 249.9 14.1 249 7.7
2007-01-08 08:44:49 51°10.137 2°41.601 251.1 13.9 250 7.7
2007-01-08 08:44:54 51°10.131 2°41.572 251.9 13.9 250 7.8
2007-01-08 08:44:58 51°10.125 2°41.549 252.6 13.9 251 7.8
2007-01-08 08:45:04 51°10.118 2°41.515 252.7 13.9 249 7.8
2007-01-08 08:45:09 51°10.111 2°41.486 253.1 14 250 7.8
2007-01-08 08:45:13 51°10.106 2°41.463 252.5 13.9 249 7.7
2007-01-08 08:45:18 51°10.098 2°41.434 252.5 14 248 7.8
2007-01-08 08:45:24 51°10.089 2°41.4 251.2 14 247 7.7
2007-01-08 08:45:28 51°10.083 2°41.378 249.8 14 246 7.7
2007-01-08 08:45:34 51°10.073 2°41.344 248.8 14 245 7.8
2007-01-08 08:45:38 51°10.067 2°41.321 247.8 14 246 7.8
2007-01-08 08:45:44 51°10.057 2°41.288 247.6 14 245 7.9
2007-01-08 08:45:48 51°10.05 2°41.265 247.3 14 245 7.8
2007-01-08 08:45:54 51°10.041 2°41.231 247.3 14 246 7.8
2007-01-08 08:45:59 51°10.033 2°41.203 247.9 14 246 7.8
2007-01-08 08:46:04 51°10.025 2°41.175 247.5 14 247 7.8
2007-01-08 08:46:08 51°10.019 2°41.153 248.6 14 247 7.8
2007-01-08 08:46:13 51°10.011 2°41.124 248.6 14 247 7.9
2007-01-08 08:46:19 51°10.003 2°41.09 248.8 14 248 7.8
2007-01-08 08:46:24 51°9.995 2°41.061 249.3 14.1 248 7.9
2007-01-08 08:46:29 51°9.988 2°41.032 250.1 14 249 7.8
2007-01-08 08:46:33 51°9.982 2°41.009 250.7 14 249 7.9
2007-01-08 08:46:38 51°9.976 2°40.98 251.1 14.1 250 7.9
2007-01-08 08:46:44 51°9.968 2°40.945 251.6 14.1 250 7.9
2007-01-08 08:46:49 51°9.961 2°40.916 252.5 14 250 7.9
2007-01-08 08:46:54 51°9.955 2°40.887 252.5 14.1 251 8
2007-01-08 08:46:58 51°9.949 2°40.863 252.9 14.1 250 7.9
2007-01-08 08:47:04 51°9.941 2°40.828 252.7 14.1 250 7.9
2007-01-08 08:47:09 51°9.934 2°40.799 252.5 14.1 249 7.9
2007-01-08 08:47:13 51°9.929 2°40.776 251.5 14.1 249 8
2007-01-08 08:47:18 51°9.921 2°40.747 251 14.1 248 8.1
2007-01-08 08:47:24 51°9.912 2°40.713 250.9 14 248 8
2007-01-08 08:47:29 51°9.905 2°40.684 250.3 14 247 8
2007-01-08 08:47:33 51°9.899 2°40.661 249.6 14.1 247 8.1
2007-01-08 08:47:38 51°9.891 2°40.633 249.5 14.1 246 8.1
2007-01-08 08:47:44 51°9.882 2°40.598 249.3 14.1 248 8
2007-01-08 08:47:48 51°9.876 2°40.575 249.5 14.1 248 8
2007-01-08 08:47:54 51°9.867 2°40.541 249.5 14.1 248 8
2007-01-08 08:47:58 51°9.862 2°40.518 250.2 14.1 249 8
2007-01-08 08:48:04 51°9.853 2°40.483 250.7 14.1 249 8
2007-01-08 08:48:08 51°9.848 2°40.459 251.1 14.1 250 8
2007-01-08 08:48:13 51°9.841 2°40.43 251.8 14.1 250 8
2007-01-08 08:48:19 51°9.833 2°40.395 252.6 14.1 249 8
2007-01-08 08:48:24 51°9.827 2°40.366 252.4 14 250 8
2007-01-08 08:48:28 51°9.821 2°40.343 252.3 14.1 249 8.1
2007-01-08 08:48:33 51°9.814 2°40.314 252.2 14.1 249 8.1
2007-01-08 08:48:39 51°9.806 2°40.279 251.6 14.1 249 8.2
2007-01-08 08:48:44 51°9.798 2°40.25 251.3 14.1 247 8.2
2007-01-08 08:48:49 51°9.791 2°40.221 250.4 14.1 248 8.1
2007-01-08 08:48:53 51°9.785 2°40.198 249.9 14.1 247 8.2
2007-01-08 08:48:58 51°9.777 2°40.17 249.2 14.1 247 8.1
2007-01-08 08:49:04 51°9.768 2°40.135 249.2 14.1 247 8.2
2007-01-08 08:49:09 51°9.76 2°40.106 249.5 14.2 247 8.2
2007-01-08 08:49:13 51°9.754 2°40.083 249.2 14.2 248 8.1
2007-01-08 08:49:18 51°9.747 2°40.054 249.5 14.2 248 8.1
2007-01-08 08:49:24 51°9.738 2°40.02 250.2 14.1 249 8.2
2007-01-08 08:49:29 51°9.731 2°39.99 250.5 14.1 249 8.2
2007-01-08 08:49:33 51°9.725 2°39.967 251.1 14.1 248 8.1
2007-01-08 08:49:38 51°9.718 2°39.938 250.7 14.1 248 8.2
2007-01-08 08:49:44 51°9.709 2°39.903 250.7 14.2 249 8.2
2007-01-08 08:49:48 51°9.703 2°39.88 250.8 14.2 249 8.2
2007-01-08 08:49:54 51°9.694 2°39.846 250.8 14.2 248 8.2
2007-01-08 08:49:58 51°9.689 2°39.822 250.4 14.2 248 8.2
2007-01-08 08:50:04 51°9.68 2°39.788 250.5 14.2 247 8.2
2007-01-08 08:50:08 51°9.674 2°39.764 250.1 14.2 249 8.2
2007-01-08 08:50:14 51°9.665 2°39.729 250.3 14.3 249 8.2
2007-01-08 08:50:19 51°9.658 2°39.7 250.7 14.2 249 8.3
2007-01-08 08:50:24 51°9.651 2°39.671 251.1 14.2 248 8.3
2007-01-08 08:50:28 51°9.645 2°39.648 250.4 14.1 248 8.3
2007-01-08 08:50:33 51°9.637 2°39.619 250.4 14.2 248 8.3
2007-01-08 08:50:39 51°9.629 2°39.584 249.7 14.2 248 8.2
2007-01-08 08:50:44 51°9.621 2°39.555 250.5 14.2 248 8.3
2007-01-08 08:50:49 51°9.614 2°39.526 250 14.2 248 8.2
2007-01-08 08:50:53 51°9.608 2°39.503 250.2 14.2 247 8.3
2007-01-08 08:50:59 51°9.599 2°39.468 250 14.2 248 8.3
2007-01-08 08:51:04 51°9.591 2°39.439 250.1 14.2 248 8.4
2007-01-08 08:51:09 51°9.584 2°39.41 250 14.2 248 8.2
2007-01-08 08:51:13 51°9.578 2°39.387 250.1 14.2 249 8.3
2007-01-08 08:51:18 51°9.571 2°39.358 250.8 14.3 249 8.3
2007-01-08 08:51:24 51°9.562 2°39.322 251.1 14.2 249 8.3
2007-01-08 08:51:29 51°9.555 2°39.293 251.6 14.2 249 8.4
2007-01-08 08:51:33 51°9.55 2°39.27 251.6 14.2 248 8.3
2007-01-08 08:51:38 51°9.543 2°39.24 251.3 14.2 249 8.4
2007-01-08 08:51:44 51°9.534 2°39.206 251.1 14.2 249 8.4
2007-01-08 08:51:49 51°9.527 2°39.176 251.1 14.2 248 8.4
2007-01-08 08:51:54 51°9.519 2°39.147 250.9 14.2 249 8.5
2007-01-08 08:51:58 51°9.514 2°39.124 250.9 14.3 248 8.5
2007-01-08 08:52:03 51°9.507 2°39.094 250.9 14.2 249 8.4
2007-01-08 08:52:08 51°9.5 2°39.065 251.1 14.2 249 8.5
2007-01-08 08:52:14 51°9.491 2°39.03 251.4 14.3 249 8.5
2007-01-08 08:52:18 51°9.486 2°39.006 251.9 14.3 250 8.4
2007-01-08 08:52:24 51°9.478 2°38.971 251.8 14.3 249 8.4
2007-01-08 08:52:28 51°9.472 2°38.947 251.8 14.2 250 8.4
2007-01-08 08:52:33 51°9.465 2°38.918 251.8 14.2 249 8.5
2007-01-08 08:52:39 51°9.456 2°38.883 251.8 14.2 249 8.5
2007-01-08 08:52:44 51°9.449 2°38.854 251.3 14.2 248 8.5
2007-01-08 08:52:48 51°9.443 2°38.83 251.1 14.2 249 8.5
2007-01-08 08:52:53 51°9.436 2°38.801 250.8 14.3 247 8.5
2007-01-08 08:52:59 51°9.427 2°38.766 250.3 14.2 249 8.5
2007-01-08 08:53:04 51°9.419 2°38.737 251 14.2 248 8.6
2007-01-08 08:53:09 51°9.412 2°38.708 250.7 14.2 249 8.5
2007-01-08 08:53:13 51°9.406 2°38.685 250.8 14.3 248 8.6
2007-01-08 08:53:18 51°9.399 2°38.655 251.1 14.2 249 8.6
2007-01-08 08:53:24 51°9.39 2°38.621 251.2 14.2 249 8.6
2007-01-08 08:53:29 51°9.384 2°38.591 251.1 14.2 249 8.6
2007-01-08 08:53:33 51°9.378 2°38.568 251.6 14.2 249 8.6
2007-01-08 08:53:38 51°9.371 2°38.538 251.8 14.3 250 8.7
2007-01-08 08:53:44 51°9.363 2°38.503 251.8 14.2 250 8.6
2007-01-08 08:53:49 51°9.356 2°38.473 252.1 14.3 249 8.6
2007-01-08 08:53:53 51°9.35 2°38.45 252 14.2 249 8.5
2007-01-08 08:53:58 51°9.344 2°38.421 251.8 14.2 249 8.6
2007-01-08 08:54:03 51°9.337 2°38.391 251.8 14.2 250 8.5
2007-01-08 08:54:08 51°9.33 2°38.362 251.8 14.3 249 8.6
2007-01-08 08:54:14 51°9.321 2°38.327 251.6 14.2 249 8.6
2007-01-08 08:54:18 51°9.315 2°38.303 251.6 14.2 248 8.6
2007-01-08 08:54:24 51°9.307 2°38.268 251.1 14.2 250 8.7
2007-01-08 08:54:28 51°9.301 2°38.245 251.3 14.2 249 8.6
2007-01-08 08:54:34 51°9.292 2°38.21 251.7 14.2 249 8.7
2007-01-08 08:54:39 51°9.285 2°38.18 251.2 14.2 249 8.6
2007-01-08 08:54:44 51°9.279 2°38.151 251.5 14.2 250 8.7
2007-01-08 08:54:48 51°9.273 2°38.128 251.7 14.2 249 8.7
2007-01-08 08:54:53 51°9.266 2°38.098 251.5 14.3 249 8.7
2007-01-08 08:54:59 51°9.257 2°38.063 251.2 14.2 249 8.6
2007-01-08 08:55:04 51°9.25 2°38.034 251.9 14.2 249 8.7
2007-01-08 08:55:09 51°9.244 2°38.004 251.9 14.2 250 8.6
2007-01-08 08:55:13 51°9.238 2°37.98 252.1 14.2 250 8.7
2007-01-08 08:55:19 51°9.23 2°37.945 252.5 14.2 250 8.6
2007-01-08 08:55:24 51°9.223 2°37.916 252 14.2 249 8.5
2007-01-08 08:55:29 51°9.216 2°37.887 251.8 14.2 249 8.6
2007-01-08 08:55:34 51°9.208 2°37.857 251.6 14.3 249 8.7
2007-01-08 08:55:38 51°9.202 2°37.834 251.4 14.2 249 8.5
2007-01-08 08:55:44 51°9.194 2°37.799 251.6 14.2 248 8.7
2007-01-08 08:55:49 51°9.187 2°37.77 251.3 14.2 248 8.5
2007-01-08 08:55:53 51°9.181 2°37.746 251.1 14.2 249 8.6
2007-01-08 08:55:58 51°9.174 2°37.717 251 14.3 249 8.5
2007-01-08 08:56:04 51°9.165 2°37.682 250.9 14.2 249 8.5
2007-01-08 08:56:09 51°9.158 2°37.653 251.3 14.2 249 8.5
2007-01-08 08:56:14 51°9.151 2°37.624 251.6 13.8 249 8.5
2007-01-08 08:56:18 51°9.146 2°37.602 251.8 13.3 250 8.4
2007-01-08 08:56:24 51°9.139 2°37.569 252 13.2 250 8.4
2007-01-08 08:56:28 51°9.134 2°37.548 252.5 13 249 8.4
2007-01-08 08:56:34 51°9.126 2°37.517 252.5 12.6 249 8.4
2007-01-08 08:56:39 51°9.12 2°37.492 252.3 11.9 249 8.4
2007-01-08 08:56:44 51°9.115 2°37.469 251.7 11.2 249 8.5
2007-01-08 08:56:48 51°9.111 2°37.451 251.6 10.7 250 8.6
2007-01-08 08:56:54 51°9.105 2°37.425 252 10.2 252 8.7
2007-01-08 08:56:59 51°9.102 2°37.405 253.3 9.5 254 8.6
2007-01-08 08:57:04 51°9.1 2°37.386 256.8 8.7 261 8.7
2007-01-08 08:57:08 51°9.099 2°37.372 262.1 8.1 264 8.7
2007-01-08 08:57:14 51°9.099 2°37.352 267.2 7.5 267 8.7
2007-01-08 08:57:19 51°9.099 2°37.336 271.7 7 270 8.8
2007-01-08 08:57:24 51°9.1 2°37.322 275.8 6.5 274 8.9
2007-01-08 08:57:29 51°9.101 2°37.309 279.1 6.1 276 8.9
2007-01-08 08:57:33 51°9.102 2°37.299 282.5 5.7 278 8.9
2007-01-08 08:57:39 51°9.103 2°37.284 285.4 5.3 280 8.9
2007-01-08 08:57:44 51°9.105 2°37.273 288.1 5.1 281 8.9
2007-01-08 08:57:49 51°9.106 2°37.263 289.9 4.8 283 8.9
2007-01-08 08:57:54 51°9.107 2°37.254 291.8 4.5 283 9
2007-01-08 08:57:58 51°9.108 2°37.246 293.9 4.3 287 9
2007-01-08 08:58:04 51°9.11 2°37.236 295.4 4.1 287 9
2007-01-08 08:58:09 51°9.112 2°37.228 297.3 3.9 289 9
2007-01-08 08:58:13 51°9.113 2°37.221 299 3.7 290 9.1
2007-01-08 08:58:18 51°9.115 2°37.214 300.7 3.4 291 9.1
2007-01-08 08:58:24 51°9.116 2°37.206 302.6 3.1 290 9.1
2007-01-08 08:58:29 51°9.118 2°37.201 304.6 2.7 291 9.1
2007-01-08 08:58:34 51°9.119 2°37.196 307 2.2 292 9.1
2007-01-08 08:58:38 51°9.12 2°37.193 310.5 1.7 288 9.2
2007-01-08 08:58:44 51°9.12 2°37.19 314.1 1.2 285 9.2
2007-01-08 08:58:49 51°9.12 2°37.188 317.4 0.9 267 9.1
2007-01-08 08:58:54 51°9.12 2°37.187 321.1 0.5 231 9.2
2007-01-08 08:58:59 51°9.119 2°37.187 324.3 0.7 198 9.2
2007-01-08 08:59:04 51°9.117 2°37.187 327 0.9 181 9.1
2007-01-08 08:59:08 51°9.117 2°37.187 329.5 1 184 9.1
2007-01-08 08:59:14 51°9.115 2°37.187 331.4 0.9 178 -999
2007-01-08 08:59:19 51°9.114 2°37.186 334.1 1 186 -999
2007-01-08 08:59:24 51°9.112 2°37.186 336.2 0.7 182 4.9
2007-01-08 08:59:29 51°9.112 2°37.185 337.7 0.5 216 4.6
2007-01-08 08:59:34 51°9.112 2°37.184 339.5 0.3 264 9
2007-01-08 08:59:39 51°9.112 2°37.183 342.1 0.6 289 8.9
2007-01-08 08:59:44 51°9.113 2°37.182 344.9 0.9 330 8.8
2007-01-08 08:59:49 51°9.115 2°37.181 349.1 1.5 331 -999
2007-01-08 08:59:53 51°9.117 2°37.18 353.8 1.9 345 9
2007-01-08 08:59:58 51°9.12 2°37.179 359 2 346 4.5
2007-01-08 09:00:04 51°9.124 2°37.178 3 1.8 353 9.1
2007-01-08 09:00:09 51°9.126 2°37.178 7.4 1.9 355 9
2007-01-08 09:00:13 51°9.128 2°37.178 10.6 2.1 2 9
2007-01-08 09:00:18 51°9.132 2°37.178 13.4 2.4 -999 9
2007-01-08 09:00:24 51°9.136 2°37.179 15.4 2.6 4 9.1
2007-01-08 09:00:29 51°9.14 2°37.179 16.3 2.8 5 9.2
2007-01-08 09:00:34 51°9.144 2°37.18 16.6 2.9 4 9.3
2007-01-08 09:00:38 51°9.147 2°37.18 16.6 2.7 2 9.2
2007-01-08 09:00:44 51°9.151 2°37.18 16 2.2 1 9.3
2007-01-08 09:00:49 51°9.154 2°37.18 14.9 1.9 359 9.4
2007-01-08 09:00:54 51°9.156 2°37.18 14.9 1.6 357 9.4
2007-01-08 09:00:59 51°9.158 2°37.18 15.6 1.3 359 9.4
2007-01-08 09:01:04 51°9.159 2°37.179 16.2 1 348 9.4
2007-01-08 09:01:09 51°9.16 2°37.179 17.3 0.7 335 9.4
2007-01-08 09:01:14 51°9.16 2°37.178 17.9 0.4 314 9.4
2007-01-08 09:01:18 51°9.16 2°37.178 18.3 0.3 241 9.4
2007-01-08 09:01:24 51°9.16 2°37.176 19 0.6 248 9.4
2007-01-08 09:01:29 51°9.159 2°37.176 19.8 0.4 212 9.6
2007-01-08 09:01:34 51°9.159 2°37.175 20.3 0.5 249 9.4
2007-01-08 09:01:39 51°9.159 2°37.175 21.1 0.3 217 9.4
2007-01-08 09:01:44 51°9.158 2°37.173 21.7 0.5 247 9.4
2007-01-08 09:01:48 51°9.158 2°37.173 22.8 0.3 190 9.5
2007-01-08 09:01:53 51°9.158 2°37.172 23.6 0.3 206 9.5
2007-01-08 09:01:59 51°9.157 2°37.172 24.4 0.4 223 9.5
2007-01-08 09:02:04 51°9.157 2°37.171 25.3 0.4 226 9.4
2007-01-08 09:02:09 51°9.157 2°37.17 26 0.4 240 9.4
2007-01-08 09:02:13 51°9.156 2°37.17 26.6 0.4 214 9.4
2007-01-08 09:02:18 51°9.156 2°37.169 27.3 0.4 233 9.5
2007-01-08 09:02:24 51°9.156 2°37.169 28.3 0.4 233 9.5
2007-01-08 09:02:29 51°9.155 2°37.168 29 0.3 228 9.5
2007-01-08 09:02:33 51°9.155 2°37.168 29.3 0.5 251 9.5
2007-01-08 09:02:38 51°9.155 2°37.167 29 0.3 193 9.5
2007-01-08 09:02:44 51°9.154 2°37.167 28.9 0.4 229 9.5
2007-01-08 09:02:49 51°9.154 2°37.167 28.6 0.3 189 9.5
2007-01-08 09:02:54 51°9.154 2°37.166 28.7 0.3 219 9.4
2007-01-08 09:02:58 51°9.153 2°37.166 29.2 0.3 224 9.4
2007-01-08 09:03:04 51°9.153 2°37.165 29.4 0.4 224 9.4
2007-01-08 09:03:09 51°9.153 2°37.164 29.1 0.4 238 9.4
2007-01-08 09:03:14 51°9.152 2°37.164 29 0.3 201 9.4
2007-01-08 09:03:19 51°9.152 2°37.163 29 0.4 248 9.3
2007-01-08 09:03:24 51°9.151 2°37.163 29 0.3 227 9.3
2007-01-08 09:03:29 51°9.151 2°37.162 28.4 0.3 227 9.3
2007-01-08 09:03:34 51°9.151 2°37.162 28.3 0.3 211 9.4
2007-01-08 09:03:39 51°9.15 2°37.161 28.1 0.3 216 9.3
2007-01-08 09:03:44 51°9.15 2°37.161 28 0.4 231 9.2
2007-01-08 09:03:49 51°9.15 2°37.16 27.9 0.4 224 9.3
2007-01-08 09:03:54 51°9.149 2°37.16 27.5 0.4 218 9.3
2007-01-08 09:03:59 51°9.149 2°37.159 27.4 0.4 219 9.3
2007-01-08 09:04:04 51°9.148 2°37.158 27.4 0.5 221 9.4
2007-01-08 09:04:08 51°9.148 2°37.158 27 0.5 219 9.5
2007-01-08 09:04:14 51°9.147 2°37.157 26.9 0.5 239 9.4
2007-01-08 09:04:19 51°9.147 2°37.157 27.1 0.3 205 9.3
2007-01-08 09:04:24 51°9.147 2°37.156 27.2 0.5 230 9.2
2007-01-08 09:04:29 51°9.146 2°37.156 26.9 0.4 227 9.1
2007-01-08 09:04:33 51°9.146 2°37.156 27.8 0.4 213 9
2007-01-08 09:04:38 51°9.145 2°37.155 28.2 0.4 215 9
2007-01-08 09:04:44 51°9.144 2°37.154 27.7 0.5 230 9.2
2007-01-08 09:04:49 51°9.144 2°37.154 27.8 0.5 211 9.3
2007-01-08 09:04:54 51°9.143 2°37.153 27.4 0.5 225 9.4
2007-01-08 09:04:58 51°9.143 2°37.152 27.4 0.5 221 9.5
2007-01-08 09:05:04 51°9.142 2°37.152 27.4 0.5 220 9.5
2007-01-08 09:05:09 51°9.142 2°37.151 27.1 0.5 219 9.6
2007-01-08 09:05:14 51°9.141 2°37.15 27.3 0.5 211 9.5
2007-01-08 09:05:18 51°9.141 2°37.149 27 0.5 217 9.4
2007-01-08 09:05:24 51°9.14 2°37.149 27.1 0.5 219 9.4
2007-01-08 09:05:29 51°9.14 2°37.148 27.2 0.6 231 9.4
2007-01-08 09:05:34 51°9.139 2°37.148 27 0.5 210 9.4
2007-01-08 09:05:39 51°9.139 2°37.147 26.5 0.5 226 9.3
2007-01-08 09:05:44 51°9.138 2°37.146 26.6 0.5 203 9.3
2007-01-08 09:05:49 51°9.138 2°37.146 26.8 0.4 207 9.2
2007-01-08 09:05:54 51°9.137 2°37.145 26.9 0.5 217 9.2
2007-01-08 09:05:59 51°9.137 2°37.144 27 0.5 233 9.3
2007-01-08 09:06:04 51°9.136 2°37.144 27.3 0.5 219 9.2
2007-01-08 09:06:09 51°9.136 2°37.143 27.6 0.5 230 9.3
2007-01-08 09:06:14 51°9.135 2°37.143 27.9 0.5 204 9.2
2007-01-08 09:06:19 51°9.135 2°37.142 28.1 0.5 214 9.2
2007-01-08 09:06:24 51°9.134 2°37.141 27.9 0.4 215 9.2
2007-01-08 09:06:28 51°9.134 2°37.141 27.9 0.5 218 9.2
2007-01-08 09:06:33 51°9.133 2°37.14 28 0.5 230 9.2
2007-01-08 09:06:39 51°9.133 2°37.139 28.3 0.5 229 9.2
2007-01-08 09:06:44 51°9.132 2°37.139 28 0.5 222 9.2
2007-01-08 09:06:49 51°9.132 2°37.139 27.7 0.5 198 9.2
2007-01-08 09:06:53 51°9.132 2°37.138 27.4 0.5 235 9.3
2007-01-08 09:06:58 51°9.131 2°37.138 27 0.5 180 9.2
2007-01-08 09:07:04 51°9.13 2°37.137 26.8 0.5 219 9.2
2007-01-08 09:07:09 51°9.13 2°37.136 27.2 0.5 211 9.2
2007-01-08 09:07:14 51°9.129 2°37.136 27.7 0.5 214 9.2
2007-01-08 09:07:18 51°9.129 2°37.135 27.7 0.5 225 9.2
2007-01-08 09:07:24 51°9.128 2°37.135 28.3 0.5 220 9.2
2007-01-08 09:07:29 51°9.127 2°37.134 28.3 0.5 222 9.2
2007-01-08 09:07:34 51°9.127 2°37.133 28.3 0.5 214 9.2
2007-01-08 09:07:39 51°9.127 2°37.133 28.1 0.4 207 9.2